createdAt,value
2022-08-17T00:02:27.284Z,82.27
2022-08-17T00:05:36.755Z,83.70
2022-08-17T00:08:51.023Z,83.84
2022-08-17T00:12:35.567Z,84.43
2022-08-17T00:15:17.167Z,84.33
2022-08-17T00:19:01.268Z,83.74
2022-08-17T00:22:32.563Z,84.50
2022-08-17T00:25:16.594Z,83.58
2022-08-17T00:28:19.084Z,81.84
2022-08-17T00:31:23.856Z,83.26
2022-08-17T00:34:25.705Z,84.92
2022-08-17T00:37:31.481Z,86.83
2022-08-17T00:40:44.507Z,87.63
2022-08-17T00:43:57.636Z,87.71
2022-08-17T00:46:59.364Z,86.54
2022-08-17T00:50:03.575Z,86.09
2022-08-17T00:53:05.940Z,86.07
2022-08-17T00:56:12.316Z,86.01
2022-08-17T00:59:19.197Z,85.98
2022-08-17T01:02:22.298Z,85.32
2022-08-17T01:05:31.766Z,85.33
2022-08-17T01:08:35.319Z,84.59
2022-08-17T01:11:46.740Z,83.71
2022-08-17T01:14:50.656Z,82.80
2022-08-17T01:17:53.254Z,83.11
2022-08-17T01:20:58.117Z,84.47
2022-08-17T01:24:01.475Z,83.82
2022-08-17T01:27:10.479Z,85.28
2022-08-17T01:30:56.662Z,86.92
2022-08-17T01:33:37.907Z,88.75
2022-08-17T01:36:43.557Z,89.15
2022-08-17T01:39:52.951Z,89.87
2022-08-17T01:43:01.371Z,89.24
2022-08-17T01:46:05.106Z,90.29
2022-08-17T01:49:11.369Z,89.77
2022-08-17T01:52:14.073Z,89.51
2022-08-17T01:55:18.554Z,90.43
2022-08-17T01:58:21.788Z,90.84
2022-08-17T02:01:27.786Z,91.19
2022-08-17T02:04:29.829Z,90.83
2022-08-17T02:07:31.675Z,89.54
2022-08-17T02:10:52.281Z,89.71
2022-08-17T02:13:55.067Z,87.57
2022-08-17T02:17:05.169Z,88.53
2022-08-17T02:20:09.396Z,88.17
2022-08-17T02:23:13.020Z,89.58
2022-08-17T02:26:25.900Z,87.79
2022-08-17T02:29:28.851Z,89.22
2022-08-17T02:32:30.699Z,86.91
2022-08-17T02:35:32.624Z,86.72
2022-08-17T02:38:36.502Z,86.73
2022-08-17T02:41:39.422Z,89.73
2022-08-17T02:44:42.363Z,90.15
2022-08-17T02:47:47.326Z,91.57
2022-08-17T02:50:51.717Z,91.69
2022-08-17T02:54:39.148Z,91.22
2022-08-17T02:57:18.471Z,92.20
2022-08-17T03:00:25.216Z,91.96
2022-08-17T03:03:27.684Z,93.22
2022-08-17T03:06:29.759Z,94.13
2022-08-17T03:09:31.684Z,93.58
2022-08-17T03:12:35.373Z,93.39
2022-08-17T03:15:40.572Z,92.86
2022-08-17T03:18:46.094Z,92.57
2022-08-17T03:21:55.216Z,92.37
2022-08-17T03:24:57.455Z,94.17
2022-08-17T03:28:00.039Z,93.34
2022-08-17T03:31:03.335Z,94.42
2022-08-17T03:34:05.251Z,93.39
2022-08-17T03:37:07.369Z,92.93
2022-08-17T03:40:10.173Z,93.31
2022-08-17T03:43:12.409Z,92.19
2022-08-17T03:46:35.016Z,92.47
2022-08-17T03:49:55.912Z,92.55
2022-08-17T03:53:16.488Z,93.06
2022-08-17T03:56:37.038Z,92.95
2022-08-17T03:59:39.467Z,91.78
2022-08-17T04:02:43.320Z,91.26
2022-08-17T04:05:48.207Z,90.99
2022-08-17T04:08:49.968Z,92.19
2022-08-17T04:11:52.339Z,92.43
2022-08-17T04:14:55.147Z,91.55
2022-08-17T04:17:58.429Z,89.51
2022-08-17T04:21:00.497Z,89.30
2022-08-17T04:24:03.105Z,91.63
2022-08-17T04:27:05.108Z,91.01
2022-08-17T04:30:07.792Z,88.13
2022-08-17T04:33:14.334Z,76.90
2022-08-17T04:36:17.185Z,70.34
2022-08-17T04:39:18.987Z,66.74
2022-08-17T04:42:20.997Z,64.17
2022-08-17T04:45:22.772Z,63.24
2022-08-17T04:48:36.955Z,64.96
2022-08-17T04:51:54.686Z,69.10
2022-08-17T04:54:58.856Z,72.34
2022-08-17T04:58:00.806Z,74.37
2022-08-17T05:01:03.633Z,76.96
2022-08-17T05:04:32.903Z,76.09
2022-08-17T05:07:31.720Z,76.69
2022-08-17T05:10:37.358Z,77.53
2022-08-17T05:13:50.303Z,77.41
2022-08-17T05:16:52.333Z,76.92
2022-08-17T05:19:54.425Z,75.37
2022-08-17T05:22:58.709Z,74.23
2022-08-17T05:26:00.614Z,74.66
2022-08-17T05:29:04.130Z,76.48
2022-08-17T05:32:38.059Z,76.61
2022-08-17T05:35:35.680Z,77.95
2022-08-17T05:38:38.124Z,77.32
2022-08-17T05:41:40.109Z,76.73
2022-08-17T05:44:41.914Z,76.40
2022-08-17T05:47:44.976Z,76.73
2022-08-17T05:50:54.449Z,75.89
2022-08-17T05:54:08.787Z,76.02
2022-08-17T05:57:53.478Z,75.96
2022-08-17T06:01:21.084Z,75.31
2022-08-17T06:04:41.692Z,75.28
2022-08-17T06:07:49.687Z,74.53
2022-08-17T06:11:37.289Z,74.42
2022-08-17T06:15:01.630Z,73.36
2022-08-17T06:18:06.937Z,72.00
2022-08-17T06:21:13.299Z,71.30
2022-08-17T06:24:43.241Z,69.50
2022-08-17T06:27:53.715Z,68.83
2022-08-17T06:31:01.479Z,67.95
2022-08-17T06:34:10.217Z,67.70
2022-08-17T06:37:31.341Z,67.04
2022-08-17T06:40:57.033Z,66.68
2022-08-17T06:44:49.798Z,66.52
2022-08-17T06:47:42.987Z,65.38
2022-08-17T06:50:50.043Z,64.57
2022-08-17T06:53:59.708Z,63.58
2022-08-17T06:57:16.782Z,64.14
2022-08-17T07:00:24.619Z,62.86
2022-08-17T07:03:45.497Z,62.61
2022-08-17T07:06:51.737Z,63.24
2022-08-17T07:09:57.682Z,61.60
2022-08-17T07:13:10.365Z,60.96
2022-08-17T07:16:19.604Z,60.56
2022-08-17T07:19:23.795Z,60.91
2022-08-17T07:23:07.106Z,59.08
2022-08-17T07:26:09.779Z,59.10
2022-08-17T07:29:17.013Z,59.12
2022-08-17T07:32:40.955Z,56.63
2022-08-17T07:35:44.966Z,57.21
2022-08-17T07:38:58.994Z,56.42
2022-08-17T07:42:05.127Z,55.98
2022-08-17T07:45:28.509Z,55.63
2022-08-17T07:48:36.292Z,54.10
2022-08-17T07:51:41.158Z,53.88
2022-08-17T07:54:43.383Z,54.02
2022-08-17T07:57:55.254Z,54.44
2022-08-17T08:01:13.512Z,54.23
2022-08-17T08:04:43.162Z,54.25
2022-08-17T08:07:48.515Z,53.45
2022-08-17T08:11:10.656Z,53.11
2022-08-17T08:14:34.253Z,52.16
2022-08-17T08:17:47.290Z,51.82
2022-08-17T08:20:54.151Z,53.18
2022-08-17T08:24:26.174Z,49.26
2022-08-17T08:28:08.219Z,50.13
2022-08-17T08:31:26.700Z,49.39
2022-08-17T08:35:02.022Z,47.35
2022-08-17T08:38:09.493Z,47.81
2022-08-17T08:41:19.988Z,46.83
2022-08-17T08:45:04.133Z,47.64
2022-08-17T08:48:46.030Z,46.64
2022-08-17T08:51:56.137Z,46.23
2022-08-17T08:55:26.259Z,46.17
2022-08-17T08:58:50.908Z,46.13
2022-08-17T09:02:20.574Z,43.52
2022-08-17T09:05:30.558Z,44.32
2022-08-17T09:08:55.359Z,45.90
2022-08-17T09:12:25.750Z,41.87
2022-08-17T09:15:32.245Z,44.08
2022-08-17T09:19:03.583Z,44.44
2022-08-17T09:22:21.527Z,43.75
2022-08-17T09:25:29.930Z,42.65
2022-08-17T09:28:37.515Z,41.51
2022-08-17T09:31:49.933Z,41.46
2022-08-17T09:35:00.516Z,42.39
2022-08-17T09:38:02.780Z,43.24
2022-08-17T09:41:48.741Z,40.77
2022-08-17T09:45:00.166Z,42.02
2022-08-17T09:48:08.967Z,40.82
2022-08-17T09:51:21.683Z,39.75
2022-08-17T09:54:40.276Z,39.49
2022-08-17T09:58:11.999Z,39.73
2022-08-17T10:01:31.951Z,40.70
2022-08-17T10:05:07.241Z,39.79
2022-08-17T10:08:24.425Z,38.83
2022-08-17T10:11:58.711Z,39.25
2022-08-17T10:15:42.800Z,37.08
2022-08-17T10:18:47.968Z,37.58
2022-08-17T10:22:14.660Z,37.99
2022-08-17T10:25:55.916Z,37.82
2022-08-17T10:29:06.909Z,36.46
2022-08-17T10:32:14.620Z,37.47
2022-08-17T10:35:34.424Z,37.59
2022-08-17T10:38:50.246Z,36.84
2022-08-17T10:41:56.173Z,35.19
2022-08-17T10:45:36.106Z,33.62
2022-08-17T10:48:39.197Z,34.32
2022-08-17T10:51:42.147Z,35.09
2022-08-17T10:54:48.678Z,33.71
2022-08-17T10:57:51.001Z,33.52
2022-08-17T11:00:57.663Z,33.58
2022-08-17T11:04:21.617Z,33.46
2022-08-17T11:07:32.658Z,33.41
2022-08-17T11:10:55.982Z,33.42
2022-08-17T11:14:30.154Z,32.41
2022-08-17T11:17:50.467Z,32.04
2022-08-17T11:21:40.638Z,31.43
2022-08-17T11:24:48.137Z,33.08
2022-08-17T11:27:54.014Z,32.25
2022-08-17T11:30:59.456Z,31.78
2022-08-17T11:34:05.179Z,31.85
2022-08-17T11:37:29.073Z,30.94
2022-08-17T11:40:34.230Z,32.49
2022-08-17T11:43:44.705Z,31.23
2022-08-17T11:47:18.595Z,30.44
2022-08-17T11:50:39.225Z,32.71
2022-08-17T11:53:41.279Z,31.12
2022-08-17T11:56:49.097Z,29.94
2022-08-17T11:59:54.290Z,30.88
2022-08-17T12:03:26.870Z,28.28
2022-08-17T12:06:51.835Z,27.37
2022-08-17T12:09:54.301Z,31.09
2022-08-17T12:12:56.458Z,31.29
2022-08-17T12:15:59.082Z,32.47
2022-08-17T12:19:02.855Z,32.59
2022-08-17T12:22:26.934Z,31.49
2022-08-17T12:26:12.458Z,30.86
2022-08-17T12:29:18.211Z,32.56
2022-08-17T12:32:40.790Z,31.67
2022-08-17T12:35:43.530Z,28.68
2022-08-17T12:39:12.872Z,27.85
2022-08-17T12:42:35.175Z,27.37
2022-08-17T12:45:42.044Z,27.26
2022-08-17T12:48:55.076Z,28.36
2022-08-17T12:52:15.511Z,26.84
2022-08-17T12:55:23.203Z,28.44
2022-08-17T12:58:34.010Z,27.37
2022-08-17T13:01:42.008Z,27.49
2022-08-17T13:04:44.507Z,28.78
2022-08-17T13:07:47.240Z,28.06
2022-08-17T13:11:02.418Z,28.74
2022-08-17T13:14:11.107Z,28.41
2022-08-17T13:17:14.087Z,29.98
2022-08-17T13:20:16.528Z,29.88
2022-08-17T13:23:20.149Z,29.02
2022-08-17T13:26:29.726Z,27.72
2022-08-17T13:29:31.837Z,28.75
2022-08-17T13:32:36.311Z,28.74
2022-08-17T13:35:39.898Z,28.63
2022-08-17T13:38:52.762Z,26.84
2022-08-17T13:41:56.540Z,28.65
2022-08-17T13:44:59.241Z,28.98
2022-08-17T13:48:16.672Z,26.51
2022-08-17T13:51:42.418Z,27.51
2022-08-17T13:54:51.372Z,27.24
2022-08-17T13:58:07.181Z,28.73
2022-08-17T14:01:28.903Z,27.03
2022-08-17T14:04:32.175Z,28.49
2022-08-17T14:07:37.526Z,27.70
2022-08-17T14:10:39.427Z,27.80
2022-08-17T14:13:41.489Z,29.98
2022-08-17T14:16:44.218Z,29.81
2022-08-17T14:19:46.197Z,29.81
2022-08-17T14:22:54.418Z,27.44
2022-08-17T14:25:56.458Z,29.03
2022-08-17T14:28:58.470Z,30.70
2022-08-17T14:32:15.210Z,30.99
2022-08-17T14:35:17.764Z,31.30
2022-08-17T14:38:20.258Z,30.56
2022-08-17T14:41:23.829Z,29.98
2022-08-17T14:44:25.783Z,29.17
2022-08-17T14:47:27.671Z,30.54
2022-08-17T14:50:29.885Z,30.81
2022-08-17T14:53:33.970Z,30.53
2022-08-17T14:56:38.068Z,30.45
2022-08-17T14:59:40.280Z,30.97
2022-08-17T15:02:46.129Z,30.22
2022-08-17T15:05:48.700Z,30.64
2022-08-17T15:08:51.470Z,29.80
2022-08-17T15:11:54.106Z,31.05
2022-08-17T15:14:57.175Z,30.16
2022-08-17T15:18:00.381Z,31.17
2022-08-17T15:21:05.929Z,31.33
2022-08-17T15:24:09.588Z,32.03
2022-08-17T15:27:11.629Z,32.68
2022-08-17T15:30:15.451Z,32.09
2022-08-17T15:33:21.354Z,32.07
2022-08-17T15:36:23.503Z,31.96
2022-08-17T15:39:25.536Z,33.46
2022-08-17T15:42:29.429Z,33.04
2022-08-17T15:45:33.936Z,33.55
2022-08-17T15:48:42.563Z,33.73
2022-08-17T15:51:44.607Z,33.94
2022-08-17T15:54:51.419Z,34.78
2022-08-17T15:57:53.772Z,34.63
2022-08-17T16:01:14.824Z,35.18
2022-08-17T16:04:26.529Z,34.95
2022-08-17T16:07:32.441Z,35.27
2022-08-17T16:10:35.698Z,34.99
2022-08-17T16:13:39.774Z,35.35
2022-08-17T16:16:42.103Z,35.10
2022-08-17T16:19:44.745Z,36.09
2022-08-17T16:22:47.212Z,35.78
2022-08-17T16:25:53.432Z,36.46
2022-08-17T16:28:57.783Z,36.58
2022-08-17T16:32:09.097Z,37.50
2022-08-17T16:35:12.466Z,36.94
2022-08-17T16:38:14.330Z,36.88
2022-08-17T16:41:36.613Z,37.27
2022-08-17T16:44:38.489Z,37.66
2022-08-17T16:47:46.008Z,37.82
2022-08-17T16:51:03.503Z,38.17
2022-08-17T16:54:07.278Z,37.99
2022-08-17T16:57:15.031Z,38.92
2022-08-17T17:00:18.359Z,39.20
2022-08-17T17:03:23.930Z,40.35
2022-08-17T17:06:40.132Z,40.66
2022-08-17T17:09:43.918Z,40.55
2022-08-17T17:13:01.689Z,41.17
2022-08-17T17:16:09.240Z,41.76
2022-08-17T17:19:11.235Z,42.46
2022-08-17T17:22:30.405Z,43.05
2022-08-17T17:25:49.014Z,42.80
2022-08-17T17:29:23.523Z,43.57
2022-08-17T17:32:38.035Z,45.09
2022-08-17T17:35:57.397Z,45.44
2022-08-17T17:39:05.480Z,44.88
2022-08-17T17:42:20.201Z,45.38
2022-08-17T17:45:26.186Z,44.89
2022-08-17T17:48:29.165Z,45.55
2022-08-17T17:52:10.955Z,46.24
2022-08-17T17:55:35.942Z,46.50
2022-08-17T17:58:50.045Z,46.66
2022-08-17T18:02:07.465Z,47.25
2022-08-17T18:05:21.386Z,47.63
2022-08-17T18:08:45.888Z,48.11
2022-08-17T18:12:08.802Z,48.37
2022-08-17T18:15:41.094Z,48.61
2022-08-17T18:18:47.011Z,47.89
2022-08-17T18:21:56.714Z,49.84
2022-08-17T18:24:59.266Z,47.51
2022-08-17T18:28:02.402Z,47.83
2022-08-17T18:31:17.701Z,49.02
2022-08-17T18:34:43.819Z,48.46
2022-08-17T18:37:53.100Z,48.85
2022-08-17T18:41:21.006Z,50.13
2022-08-17T18:44:31.424Z,49.79
2022-08-17T18:47:34.325Z,48.88
2022-08-17T18:50:41.597Z,49.38
2022-08-17T18:53:44.250Z,49.35
2022-08-17T18:57:12.816Z,50.88
2022-08-17T19:00:26.765Z,50.65
2022-08-17T19:03:29.730Z,49.73
2022-08-17T19:06:34.342Z,49.76
2022-08-17T19:09:40.822Z,50.19
2022-08-17T19:13:12.961Z,50.10
2022-08-17T19:16:39.323Z,51.43
2022-08-17T19:19:58.595Z,51.28
2022-08-17T19:23:36.082Z,52.38
2022-08-17T19:26:53.474Z,50.71
2022-08-17T19:30:07.142Z,50.13
2022-08-17T19:33:11.317Z,49.80
2022-08-17T19:36:36.299Z,50.00
2022-08-17T19:39:41.313Z,49.73
2022-08-17T19:42:52.614Z,51.00
2022-08-17T19:46:18.482Z,51.42
2022-08-17T19:49:45.786Z,50.15
2022-08-17T19:53:04.302Z,50.63
2022-08-17T19:56:35.480Z,51.71
2022-08-17T19:59:51.255Z,52.18
2022-08-17T20:03:06.457Z,51.10
2022-08-17T20:06:14.169Z,51.51
2022-08-17T20:09:24.314Z,52.67
2022-08-17T20:12:35.996Z,52.24
2022-08-17T20:15:39.944Z,53.86
2022-08-17T20:19:04.300Z,54.19
2022-08-17T20:22:11.811Z,51.91
2022-08-17T20:25:30.413Z,52.40
2022-08-17T20:28:35.556Z,51.54
2022-08-17T20:31:49.051Z,52.10
2022-08-17T20:35:04.835Z,52.84
2022-08-17T20:38:08.350Z,52.27
2022-08-17T20:41:17.139Z,51.92
2022-08-17T20:44:32.682Z,53.86
2022-08-17T20:48:01.173Z,53.24
2022-08-17T20:51:29.899Z,53.53
2022-08-17T20:55:03.544Z,54.45
2022-08-17T20:58:16.410Z,53.22
2022-08-17T21:01:36.508Z,53.09
2022-08-17T21:04:50.563Z,53.37
2022-08-17T21:07:56.801Z,52.44
2022-08-17T21:11:03.872Z,53.81
2022-08-17T21:14:26.193Z,54.58
2022-08-17T21:18:06.981Z,53.87
2022-08-17T21:21:17.561Z,54.10
2022-08-17T21:24:31.741Z,53.87
2022-08-17T21:27:56.749Z,54.41
2022-08-17T21:31:06.711Z,53.74
2022-08-17T21:34:26.308Z,54.88
2022-08-17T21:37:35.533Z,54.55
2022-08-17T21:40:37.671Z,53.94
2022-08-17T21:43:48.128Z,55.33
2022-08-17T21:46:52.441Z,54.70
2022-08-17T21:49:55.532Z,54.81
2022-08-17T21:52:58.735Z,55.81
2022-08-17T21:56:00.995Z,56.19
2022-08-17T21:59:06.663Z,55.88
2022-08-17T22:02:17.563Z,55.42
2022-08-17T22:05:31.509Z,56.31
2022-08-17T22:08:35.532Z,55.75
2022-08-17T22:11:57.900Z,57.35
2022-08-17T22:15:01.114Z,55.74
2022-08-17T22:18:06.451Z,55.74
2022-08-17T22:21:09.075Z,55.66
2022-08-17T22:24:23.370Z,56.16
2022-08-17T22:27:52.648Z,57.40
2022-08-17T22:31:05.945Z,57.33
2022-08-17T22:34:14.113Z,56.44
2022-08-17T22:37:29.235Z,56.45
2022-08-17T22:40:33.376Z,55.73
2022-08-17T22:43:38.586Z,56.58
2022-08-17T22:47:02.725Z,56.78
2022-08-17T22:50:13.278Z,56.91
2022-08-17T22:53:37.516Z,55.99
2022-08-17T22:57:18.707Z,57.32
2022-08-17T23:00:33.862Z,58.58
2022-08-17T23:03:53.917Z,58.59
2022-08-17T23:06:56.092Z,57.53
2022-08-17T23:10:00.704Z,58.22
2022-08-17T23:13:03.187Z,57.98
2022-08-17T23:16:05.227Z,58.04
2022-08-17T23:19:08.553Z,58.16
2022-08-17T23:22:11.569Z,57.66
2022-08-17T23:25:17.722Z,58.47
2022-08-17T23:28:22.762Z,58.16
2022-08-17T23:31:25.785Z,58.78
2022-08-17T23:34:30.291Z,58.63
2022-08-17T23:37:32.907Z,58.52
2022-08-17T23:40:34.735Z,58.75
2022-08-17T23:43:39.306Z,58.16
2022-08-17T23:46:41.777Z,58.48
2022-08-17T23:49:44.278Z,58.36
2022-08-17T23:52:47.554Z,58.96
2022-08-17T23:56:09.017Z,59.05
2022-08-17T23:59:13.911Z,59.33
